createdAt,value
2023-03-31T00:00:47.124Z,99025.81
2023-03-31T00:03:22.405Z,99020.63
2023-03-31T00:05:56.624Z,99023.09
2023-03-31T00:08:35.759Z,99029.19
2023-03-31T00:11:04.569Z,99031.63
2023-03-31T00:13:31.583Z,99038.28
2023-03-31T00:16:02.672Z,99029.75
2023-03-31T00:18:30.144Z,99028.09
2023-03-31T00:21:08.405Z,99013.63
2023-03-31T00:23:35.601Z,99011.72
2023-03-31T00:26:02.732Z,99007.38
2023-03-31T00:28:29.849Z,99011.72
2023-03-31T00:31:00.987Z,99004.06
2023-03-31T00:33:28.209Z,99001.59
2023-03-31T00:35:55.671Z,99004.16
2023-03-31T00:38:22.710Z,98993.94
2023-03-31T00:40:51.945Z,98994.69
2023-03-31T00:43:30.916Z,98992.94
2023-03-31T00:46:05.336Z,98997.06
2023-03-31T00:48:32.461Z,98998.59
2023-03-31T00:50:59.633Z,98997.78
2023-03-31T00:53:28.904Z,98991.84
2023-03-31T00:55:57.695Z,98991.78
2023-03-31T00:58:28.399Z,98985.75
2023-03-31T01:00:57.085Z,98981.47
2023-03-31T01:03:25.207Z,98970.34
2023-03-31T01:05:55.612Z,98972.22
2023-03-31T01:08:24.588Z,98966.28
2023-03-31T01:10:57.060Z,98971.38
2023-03-31T01:13:24.370Z,98978.22
2023-03-31T01:15:51.540Z,98976.47
2023-03-31T01:18:21.976Z,98977.19
2023-03-31T01:21:07.882Z,98974.53
2023-03-31T01:23:53.408Z,98971.22
2023-03-31T01:26:44.991Z,98971.28
2023-03-31T01:29:25.765Z,98974.81
2023-03-31T01:31:55.450Z,98977.41
2023-03-31T01:34:52.772Z,98974.66
2023-03-31T01:37:28.856Z,98972.09
2023-03-31T01:40:14.530Z,98966.25
2023-03-31T01:42:47.476Z,98968.75
2023-03-31T01:45:42.660Z,98959.38
2023-03-31T01:48:23.691Z,98950.88
2023-03-31T01:51:16.546Z,98965.16
2023-03-31T01:54:13.454Z,98962.66
2023-03-31T01:56:42.629Z,98971.13
2023-03-31T01:59:12.981Z,98982.28
2023-03-31T02:01:43.497Z,98981.47
2023-03-31T02:04:13.887Z,98984.09
2023-03-31T02:06:42.922Z,98977.28
2023-03-31T02:09:12.600Z,98981.50
2023-03-31T02:11:39.980Z,98978.00
2023-03-31T02:14:10.230Z,98995.88
2023-03-31T02:16:58.633Z,98997.66
2023-03-31T02:19:29.884Z,98991.69
2023-03-31T02:21:57.812Z,98991.69
2023-03-31T02:24:25.893Z,98990.03
2023-03-31T02:27:11.172Z,98985.84
2023-03-31T02:29:38.300Z,98983.31
2023-03-31T02:32:21.095Z,98980.03
2023-03-31T02:34:48.165Z,98960.66
2023-03-31T02:37:15.432Z,98957.09
2023-03-31T02:39:45.760Z,98957.72
2023-03-31T02:42:12.788Z,98955.09
2023-03-31T02:44:39.889Z,98951.72
2023-03-31T02:47:08.929Z,98950.72
2023-03-31T02:49:35.872Z,98950.56
2023-03-31T02:52:16.553Z,98939.69
2023-03-31T02:54:43.849Z,98944.09
2023-03-31T02:57:33.107Z,98949.16
2023-03-31T03:00:13.676Z,98955.06
2023-03-31T03:02:59.618Z,98957.44
2023-03-31T03:05:34.986Z,98957.44
2023-03-31T03:08:31.390Z,98962.44
2023-03-31T03:11:23.011Z,98953.19
2023-03-31T03:13:56.374Z,98950.66
2023-03-31T03:16:30.589Z,98942.00
2023-03-31T03:19:05.744Z,98935.28
2023-03-31T03:21:32.739Z,98930.97
2023-03-31T03:24:00.228Z,98932.78
2023-03-31T03:26:30.533Z,98931.91
2023-03-31T03:28:57.457Z,98930.19
2023-03-31T03:31:26.295Z,98926.81
2023-03-31T03:33:53.621Z,98929.41
2023-03-31T03:36:20.745Z,98916.72
2023-03-31T03:38:47.815Z,98909.13
2023-03-31T03:41:14.754Z,98903.25
2023-03-31T03:43:41.694Z,98909.25
2023-03-31T03:46:08.998Z,98916.88
2023-03-31T03:48:36.177Z,98921.22
2023-03-31T03:51:03.223Z,98922.88
2023-03-31T03:53:30.408Z,98908.41
2023-03-31T03:55:59.323Z,98916.94
2023-03-31T03:58:26.537Z,98927.81
2023-03-31T04:00:53.595Z,98923.44
2023-03-31T04:03:20.538Z,98920.91
2023-03-31T04:05:49.988Z,98915.59
2023-03-31T04:08:17.997Z,98919.81
2023-03-31T04:10:49.313Z,98914.69
2023-03-31T04:13:17.117Z,98920.78
2023-03-31T04:15:44.092Z,98920.13
2023-03-31T04:18:18.652Z,98904.94
2023-03-31T04:20:45.908Z,98904.97
2023-03-31T04:23:15.095Z,98904.13
2023-03-31T04:25:46.431Z,98890.50
2023-03-31T04:28:14.616Z,98886.19
2023-03-31T04:30:41.736Z,98887.88
2023-03-31T04:33:08.764Z,98890.38
2023-03-31T04:35:52.843Z,98889.69
2023-03-31T04:38:23.981Z,98875.34
2023-03-31T04:40:52.293Z,98862.72
2023-03-31T04:43:20.342Z,98856.69
2023-03-31T04:45:47.388Z,98858.19
2023-03-31T04:48:14.561Z,98843.72
2023-03-31T04:50:41.603Z,98844.56
2023-03-31T04:53:08.604Z,98855.56
2023-03-31T04:55:35.648Z,98845.28
2023-03-31T04:58:02.684Z,98834.34
2023-03-31T05:00:30.147Z,98834.38
2023-03-31T05:02:57.207Z,98836.91
2023-03-31T05:05:24.309Z,98837.81
2023-03-31T05:07:51.398Z,98842.97
2023-03-31T05:10:18.470Z,98837.16
2023-03-31T05:12:45.514Z,98831.31
2023-03-31T05:15:12.917Z,98838.13
2023-03-31T05:17:40.232Z,98839.97
2023-03-31T05:20:08.434Z,98835.78
2023-03-31T05:22:38.552Z,98839.97
2023-03-31T05:25:06.745Z,98825.50
2023-03-31T05:27:33.909Z,98823.13
2023-03-31T05:30:01.092Z,98834.22
2023-03-31T05:32:28.074Z,98847.81
2023-03-31T05:34:57.894Z,98859.78
2023-03-31T05:37:25.242Z,98862.31
2023-03-31T05:39:52.350Z,98858.06
2023-03-31T05:42:19.744Z,98857.31
2023-03-31T05:44:46.944Z,98852.25
2023-03-31T05:47:14.188Z,98851.34
2023-03-31T05:49:41.364Z,98850.44
2023-03-31T05:52:08.440Z,98851.38
2023-03-31T05:54:35.511Z,98845.47
2023-03-31T05:57:02.654Z,98842.03
2023-03-31T05:59:29.646Z,98842.94
2023-03-31T06:01:56.806Z,98843.69
2023-03-31T06:04:24.769Z,98836.03
2023-03-31T06:06:51.772Z,98834.38
2023-03-31T06:09:18.802Z,98826.81
2023-03-31T06:11:46.273Z,98823.53
2023-03-31T06:14:13.627Z,98828.78
2023-03-31T06:16:40.732Z,98821.16
2023-03-31T06:19:07.822Z,98817.81
2023-03-31T06:21:34.873Z,98823.03
2023-03-31T06:24:01.965Z,98829.09
2023-03-31T06:26:29.002Z,98828.13
2023-03-31T06:28:56.258Z,98833.03
2023-03-31T06:31:24.489Z,98836.34
2023-03-31T06:33:52.044Z,98828.56
2023-03-31T06:36:20.412Z,98822.72
2023-03-31T06:38:47.845Z,98824.53
2023-03-31T06:41:15.705Z,98814.38
2023-03-31T06:43:42.904Z,98803.22
2023-03-31T06:46:10.593Z,98801.63
2023-03-31T06:48:37.829Z,98801.63
2023-03-31T06:51:06.350Z,98810.94
2023-03-31T06:53:33.647Z,98806.72
2023-03-31T06:56:00.944Z,98809.28
2023-03-31T06:58:30.627Z,98813.50
2023-03-31T07:00:58.702Z,98811.78
2023-03-31T07:03:25.978Z,98819.41
2023-03-31T07:05:53.450Z,98813.34
2023-03-31T07:08:20.631Z,98809.13
2023-03-31T07:10:49.140Z,98797.44
2023-03-31T07:13:16.744Z,98794.97
2023-03-31T07:15:44.017Z,98793.25
2023-03-31T07:18:12.748Z,98789.03
2023-03-31T07:20:39.891Z,98789.09
2023-03-31T07:23:07.041Z,98778.94
2023-03-31T07:25:34.325Z,98767.00
2023-03-31T07:28:01.272Z,98770.53
2023-03-31T07:30:28.388Z,98764.66
2023-03-31T07:32:55.372Z,98771.41
2023-03-31T07:35:23.142Z,98771.34
2023-03-31T07:37:50.795Z,98769.69
2023-03-31T07:40:22.761Z,98768.88
2023-03-31T07:42:52.137Z,98762.13
2023-03-31T07:45:23.299Z,98762.88
2023-03-31T07:47:50.398Z,98760.31
2023-03-31T07:50:17.832Z,98753.56
2023-03-31T07:52:47.162Z,98751.06
2023-03-31T07:55:14.512Z,98751.06
2023-03-31T07:57:42.341Z,98756.19
2023-03-31T08:00:12.519Z,98762.31
2023-03-31T08:02:41.174Z,98759.91
2023-03-31T08:05:08.502Z,98756.50
2023-03-31T08:07:36.747Z,98754.84
2023-03-31T08:10:07.778Z,98749.72
2023-03-31T08:12:34.831Z,98755.59
2023-03-31T08:15:01.774Z,98757.31
2023-03-31T08:17:28.878Z,98753.09
2023-03-31T08:19:55.934Z,98746.22
2023-03-31T08:22:23.551Z,98747.09
2023-03-31T08:24:50.560Z,98754.84
2023-03-31T08:27:17.617Z,98753.09
2023-03-31T08:29:44.501Z,98745.44
2023-03-31T08:32:11.508Z,98744.56
2023-03-31T08:34:38.522Z,98736.97
2023-03-31T08:37:06.148Z,98748.03
2023-03-31T08:39:34.278Z,98736.16
2023-03-31T08:42:03.174Z,98748.09
2023-03-31T08:44:50.435Z,98742.16
2023-03-31T08:47:19.451Z,98735.34
2023-03-31T08:49:50.088Z,98722.53
2023-03-31T08:52:19.779Z,98716.63
2023-03-31T08:54:47.786Z,98712.50
2023-03-31T08:57:23.521Z,98717.75
2023-03-31T08:59:51.352Z,98712.66
2023-03-31T09:06:04.478Z,98716.16
2023-03-31T09:08:38.747Z,98713.53
2023-03-31T09:11:20.631Z,98715.13
2023-03-31T09:14:13.972Z,98715.13
2023-03-31T09:17:02.793Z,98712.63
2023-03-31T09:19:41.568Z,98712.66
2023-03-31T09:22:18.061Z,98702.44
2023-03-31T09:24:55.794Z,98703.41
2023-03-31T09:27:22.763Z,98699.19
2023-03-31T09:29:56.552Z,98694.91
2023-03-31T09:32:25.530Z,98690.69
2023-03-31T09:34:54.091Z,98700.13
2023-03-31T09:37:21.087Z,98696.00
2023-03-31T09:39:47.988Z,98700.28
2023-03-31T09:42:14.989Z,98686.56
2023-03-31T09:44:44.578Z,98679.81
2023-03-31T09:47:22.083Z,98676.34
2023-03-31T09:49:53.917Z,98675.56
2023-03-31T09:52:31.948Z,98673.09
2023-03-31T09:55:03.476Z,98671.44
2023-03-31T09:57:35.247Z,98672.34
2023-03-31T10:00:19.181Z,98669.00
2023-03-31T10:02:49.987Z,98674.19
2023-03-31T10:05:25.587Z,98677.59
2023-03-31T10:07:53.853Z,98664.91
2023-03-31T10:10:32.465Z,98659.81
2023-03-31T10:13:00.388Z,98664.09
2023-03-31T10:15:28.008Z,98670.84
2023-03-31T10:17:55.736Z,98671.69
2023-03-31T10:20:37.989Z,98671.63
2023-03-31T10:23:14.858Z,98663.06
2023-03-31T10:25:41.699Z,98660.56
2023-03-31T10:28:11.571Z,98661.47
2023-03-31T10:30:40.606Z,98653.88
2023-03-31T10:33:21.812Z,98658.13
2023-03-31T10:35:54.332Z,98652.91
2023-03-31T10:38:40.486Z,98651.09
2023-03-31T10:41:07.891Z,98650.13
2023-03-31T10:43:44.404Z,98639.13
2023-03-31T10:46:11.703Z,98638.31
2023-03-31T10:48:41.156Z,98641.69
2023-03-31T10:51:17.424Z,98641.72
2023-03-31T10:53:51.349Z,98634.97
2023-03-31T10:56:49.698Z,98638.47
2023-03-31T10:59:41.839Z,98625.72
2023-03-31T11:02:47.434Z,98625.69
2023-03-31T11:05:17.556Z,98625.66
2023-03-31T11:08:05.870Z,98625.78
2023-03-31T11:10:38.677Z,98624.13
2023-03-31T11:13:11.449Z,98619.91
2023-03-31T11:15:59.633Z,98616.41
2023-03-31T11:18:49.784Z,98614.69
2023-03-31T11:21:21.502Z,98612.91
2023-03-31T11:24:20.640Z,98613.78
2023-03-31T11:27:08.823Z,98609.53
2023-03-31T11:29:42.551Z,98598.50
2023-03-31T11:32:31.711Z,98600.22
2023-03-31T11:35:18.031Z,98593.41
2023-03-31T11:38:13.122Z,98601.13
2023-03-31T11:40:51.247Z,98594.38
2023-03-31T11:43:38.050Z,98586.72
2023-03-31T11:46:08.053Z,98593.53
2023-03-31T11:48:46.010Z,98583.16
2023-03-31T11:51:19.692Z,98584.88
2023-03-31T11:53:46.911Z,98583.13
2023-03-31T11:56:16.793Z,98582.28
2023-03-31T11:58:47.266Z,98579.72
2023-03-31T12:01:17.157Z,98575.50
2023-03-31T12:04:05.636Z,98570.41
2023-03-31T12:06:35.111Z,98574.69
2023-03-31T12:09:15.226Z,98576.41
2023-03-31T12:12:07.052Z,98569.66
2023-03-31T12:14:44.934Z,98565.34
2023-03-31T12:17:18.742Z,98568.78
2023-03-31T12:20:10.793Z,98563.69
2023-03-31T12:22:44.741Z,98563.56
2023-03-31T12:25:15.898Z,98567.84
2023-03-31T12:27:44.049Z,98562.81
2023-03-31T12:30:34.584Z,98550.16
2023-03-31T12:33:03.219Z,98550.97
2023-03-31T12:35:40.764Z,98557.75
2023-03-31T12:38:19.923Z,98564.53
2023-03-31T12:40:46.640Z,98556.13
2023-03-31T12:43:29.160Z,98562.06
2023-03-31T12:46:33.413Z,98552.69
2023-03-31T12:49:09.052Z,98550.91
2023-03-31T12:52:00.230Z,98551.81
2023-03-31T12:54:52.694Z,98542.38
2023-03-31T12:57:23.665Z,98538.16
2023-03-31T13:00:08.006Z,98536.50
2023-03-31T13:02:35.085Z,98539.09
2023-03-31T13:05:39.639Z,98529.75
2023-03-31T13:08:11.048Z,98532.22
2023-03-31T13:10:57.489Z,98531.38
2023-03-31T13:13:24.406Z,98535.72
2023-03-31T13:15:57.369Z,98540.03
2023-03-31T13:18:24.355Z,98531.47
2023-03-31T13:23:33.940Z,98528.94
2023-03-31T13:26:01.084Z,98530.69
2023-03-31T13:28:32.996Z,98524.78
2023-03-31T13:31:04.098Z,98528.09
2023-03-31T13:33:57.540Z,98531.59
2023-03-31T13:36:34.162Z,98529.09
2023-03-31T13:39:13.192Z,98534.25
2023-03-31T13:42:13.812Z,98530.91
2023-03-31T13:45:03.396Z,98529.19
2023-03-31T13:47:39.538Z,98523.19
2023-03-31T13:50:24.475Z,98525.56
2023-03-31T13:53:17.884Z,98525.56
2023-03-31T13:55:56.169Z,98516.16
2023-03-31T13:58:38.823Z,98520.47
2023-03-31T14:01:24.226Z,98523.88
2023-03-31T14:03:55.997Z,98523.97
2023-03-31T14:06:46.080Z,98519.66
2023-03-31T14:09:36.129Z,98515.44
2023-03-31T14:12:32.273Z,98510.38
2023-03-31T14:14:59.321Z,98513.78
2023-03-31T14:17:28.825Z,98508.59
2023-03-31T14:20:08.056Z,98514.59
2023-03-31T14:22:53.562Z,98507.00
2023-03-31T14:25:48.112Z,98509.59
2023-03-31T14:28:23.654Z,98507.97
2023-03-31T14:30:58.955Z,98501.97
2023-03-31T14:33:32.188Z,98501.09
2023-03-31T14:36:04.782Z,98501.16
2023-03-31T14:38:32.253Z,98502.00
2023-03-31T14:41:01.299Z,98503.69
2023-03-31T14:43:33.876Z,98500.22
2023-03-31T14:46:02.275Z,98506.16
2023-03-31T14:48:29.752Z,98501.00
2023-03-31T14:50:59.267Z,98506.06
2023-03-31T14:53:26.982Z,98500.97
2023-03-31T14:56:23.132Z,98504.44
2023-03-31T14:58:51.669Z,98504.38
2023-03-31T15:01:21.401Z,98506.16
2023-03-31T15:03:48.493Z,98497.72
2023-03-31T15:06:15.481Z,98497.66
2023-03-31T15:08:42.450Z,98500.16
2023-03-31T15:11:14.292Z,98505.28
2023-03-31T15:14:00.641Z,98499.31
2023-03-31T15:16:41.756Z,98500.16
2023-03-31T15:19:18.029Z,98501.06
2023-03-31T15:21:45.585Z,98507.03
2023-03-31T15:24:13.409Z,98498.44
2023-03-31T15:26:53.626Z,98499.22
2023-03-31T15:29:21.849Z,98495.84
2023-03-31T15:31:50.748Z,98495.00
2023-03-31T15:34:30.243Z,98489.97
2023-03-31T15:36:57.415Z,98495.16
2023-03-31T15:39:25.518Z,98490.94
2023-03-31T15:41:52.839Z,98495.13
2023-03-31T15:44:30.096Z,98496.88
2023-03-31T15:47:12.387Z,98506.25
2023-03-31T15:49:47.062Z,98501.19
2023-03-31T15:52:29.926Z,98497.81
2023-03-31T15:54:57.233Z,98490.94
2023-03-31T15:57:31.700Z,98496.88
2023-03-31T16:00:00.408Z,98499.56
2023-03-31T16:02:44.234Z,98501.44
2023-03-31T16:05:54.565Z,98493.00
2023-03-31T16:08:44.633Z,98493.06
2023-03-31T16:11:14.037Z,98494.78
2023-03-31T16:13:44.475Z,98489.63
2023-03-31T16:16:13.711Z,98494.75
2023-03-31T16:18:46.363Z,98489.59
2023-03-31T16:21:15.538Z,98491.22
2023-03-31T16:23:44.829Z,98497.16
2023-03-31T16:26:13.337Z,98492.88
2023-03-31T16:28:40.544Z,98495.44
2023-03-31T16:31:34.555Z,98501.44
2023-03-31T16:34:02.215Z,98496.38
2023-03-31T16:36:29.174Z,98495.53
2023-03-31T16:38:57.941Z,98500.59
2023-03-31T16:41:27.247Z,98485.25
2023-03-31T16:43:54.871Z,98489.44
2023-03-31T16:46:22.762Z,98492.00
2023-03-31T16:48:50.463Z,98489.44
2023-03-31T16:51:17.924Z,98489.50
2023-03-31T16:53:45.171Z,98488.66
2023-03-31T16:56:12.283Z,98489.53
2023-03-31T16:58:39.774Z,98484.47
2023-03-31T17:01:07.462Z,98487.03
2023-03-31T17:03:34.955Z,98478.47
2023-03-31T17:06:05.963Z,98481.03
2023-03-31T17:08:32.881Z,98483.69
2023-03-31T17:11:14.318Z,98482.88
2023-03-31T17:13:42.812Z,98482.97
2023-03-31T17:16:20.176Z,98483.00
2023-03-31T17:18:51.323Z,98484.59
2023-03-31T17:21:19.325Z,98487.13
2023-03-31T17:23:46.705Z,98488.03
2023-03-31T17:26:13.753Z,98482.13
2023-03-31T17:28:41.118Z,98482.13
2023-03-31T17:31:24.883Z,98479.53
2023-03-31T17:33:51.890Z,98473.63
2023-03-31T17:36:18.984Z,98483.09
2023-03-31T17:38:45.963Z,98481.38
2023-03-31T17:41:13.261Z,98479.69
2023-03-31T17:43:40.558Z,98485.72
2023-03-31T17:46:11.116Z,98484.03
2023-03-31T17:48:39.810Z,98486.63
2023-03-31T17:51:07.876Z,98488.28
2023-03-31T17:53:35.689Z,98490.72
2023-03-31T17:56:03.964Z,98488.09
2023-03-31T17:58:31.338Z,98486.31
2023-03-31T18:00:58.639Z,98488.00
2023-03-31T18:03:28.352Z,98482.00
2023-03-31T18:05:55.706Z,98480.16
2023-03-31T18:08:23.134Z,98491.38
2023-03-31T18:10:50.709Z,98483.72
2023-03-31T18:13:17.596Z,98486.31
2023-03-31T18:15:51.569Z,98493.19
2023-03-31T18:18:19.392Z,98484.72
2023-03-31T18:20:46.463Z,98480.41
2023-03-31T18:23:13.403Z,98481.16
2023-03-31T18:25:45.289Z,98485.53
2023-03-31T18:28:16.174Z,98478.72
2023-03-31T18:30:47.405Z,98478.75
2023-03-31T18:33:15.216Z,98474.59
2023-03-31T18:35:42.499Z,98476.25
2023-03-31T18:38:09.985Z,98480.41
2023-03-31T18:40:37.754Z,98476.22
2023-03-31T18:43:05.235Z,98473.72
2023-03-31T18:45:33.044Z,98476.19
2023-03-31T18:48:00.261Z,98468.53
2023-03-31T18:50:27.340Z,98471.03
2023-03-31T18:52:54.866Z,98475.25
2023-03-31T18:55:29.228Z,98469.34
2023-03-31T18:57:56.389Z,98473.75
2023-03-31T19:00:23.826Z,98466.00
2023-03-31T19:02:51.490Z,98466.88
2023-03-31T19:05:18.517Z,98474.50
2023-03-31T19:07:45.593Z,98473.66
2023-03-31T19:10:12.481Z,98466.09
2023-03-31T19:12:39.669Z,98463.59
2023-03-31T19:15:07.218Z,98461.97
2023-03-31T19:17:34.181Z,98461.97
2023-03-31T19:20:01.477Z,98461.97
2023-03-31T19:22:29.995Z,98461.97
2023-03-31T19:24:57.090Z,98460.25
2023-03-31T19:27:26.203Z,98472.91
2023-03-31T19:29:53.226Z,98466.78
2023-03-31T19:32:20.404Z,98470.91
2023-03-31T19:34:47.547Z,98472.44
2023-03-31T19:37:15.394Z,98465.25
2023-03-31T19:39:42.591Z,98458.97
2023-03-31T19:42:09.509Z,98458.66
2023-03-31T19:44:36.460Z,98460.19
2023-03-31T19:47:03.557Z,98464.34
2023-03-31T19:49:30.739Z,98460.72
2023-03-31T19:51:57.754Z,98466.50
2023-03-31T19:54:24.790Z,98462.09
2023-03-31T19:56:52.369Z,98460.22
2023-03-31T19:59:19.342Z,98454.94
2023-03-31T20:01:46.459Z,98457.41
2023-03-31T20:04:17.277Z,98455.53
2023-03-31T20:06:44.307Z,98446.09
2023-03-31T20:09:11.491Z,98449.41
2023-03-31T20:11:39.660Z,98440.75
2023-03-31T20:14:07.571Z,98446.72
2023-03-31T20:16:34.718Z,98444.88
2023-03-31T20:19:04.389Z,98445.63
2023-03-31T20:21:33.030Z,98438.69
2023-03-31T20:24:00.198Z,98448.81
2023-03-31T20:26:30.250Z,98441.91
2023-03-31T20:28:58.162Z,98442.69
2023-03-31T20:31:26.531Z,98441.81
2023-03-31T20:33:53.676Z,98444.41
2023-03-31T20:36:25.172Z,98444.34
2023-03-31T20:38:53.302Z,98448.53
2023-03-31T20:41:22.335Z,98447.66
2023-03-31T20:43:50.617Z,98454.59
2023-03-31T20:46:17.707Z,98459.75
2023-03-31T20:48:47.762Z,98458.06
2023-03-31T20:51:16.374Z,98450.53
2023-03-31T20:53:44.546Z,98454.09
2023-03-31T20:56:21.277Z,98452.44
2023-03-31T20:58:49.138Z,98454.03
2023-03-31T21:01:16.763Z,98453.16
2023-03-31T21:03:43.976Z,98446.34
2023-03-31T21:06:12.384Z,98447.22
2023-03-31T21:08:40.856Z,98452.25
2023-03-31T21:11:07.825Z,98448.81
2023-03-31T21:13:34.737Z,98446.19
2023-03-31T21:16:01.713Z,98443.56
2023-03-31T21:18:29.608Z,98444.34
2023-03-31T21:21:01.272Z,98447.59
2023-03-31T21:23:28.881Z,98435.63
2023-03-31T21:25:58.081Z,98439.88
2023-03-31T21:28:26.800Z,98432.31
2023-03-31T21:31:00.708Z,98432.28
2023-03-31T21:33:27.787Z,98433.91
2023-03-31T21:35:54.844Z,98426.19
2023-03-31T21:38:21.982Z,98433.81
2023-03-31T21:40:49.476Z,98429.56
2023-03-31T21:43:16.511Z,98431.34
2023-03-31T21:45:43.604Z,98421.22
2023-03-31T21:48:10.900Z,98425.50
2023-03-31T21:50:38.616Z,98428.09
2023-03-31T21:53:05.687Z,98420.53
2023-03-31T21:55:33.722Z,98419.63
2023-03-31T21:58:00.865Z,98416.94
2023-03-31T22:00:28.147Z,98417.78
2023-03-31T22:03:06.215Z,98415.25
2023-03-31T22:05:42.141Z,98416.22
2023-03-31T22:08:09.074Z,98417.03
2023-03-31T22:10:36.044Z,98413.59
2023-03-31T22:13:03.047Z,98410.16
2023-03-31T22:15:30.313Z,98409.25
2023-03-31T22:17:57.514Z,98410.22
2023-03-31T22:20:24.607Z,98416.34
2023-03-31T22:22:51.865Z,98406.13
2023-03-31T22:25:18.880Z,98412.06
2023-03-31T22:27:46.150Z,98406.19
2023-03-31T22:30:13.616Z,98408.75
2023-03-31T22:32:40.615Z,98409.66
2023-03-31T22:35:07.908Z,98413.00
2023-03-31T22:37:34.801Z,98408.75
2023-03-31T22:40:01.875Z,98409.59
2023-03-31T22:42:28.791Z,98408.75
2023-03-31T22:44:56.200Z,98408.81
2023-03-31T22:47:23.088Z,98397.78
2023-03-31T22:49:49.952Z,98397.00
2023-03-31T22:52:16.872Z,98403.81
2023-03-31T22:54:43.771Z,98401.31
2023-03-31T22:57:11.372Z,98397.88
2023-03-31T22:59:38.396Z,98406.34
2023-03-31T23:02:05.364Z,98405.63
2023-03-31T23:04:32.251Z,98404.94
2023-03-31T23:06:59.179Z,98407.50
2023-03-31T23:09:26.335Z,98401.50
2023-03-31T23:11:53.432Z,98404.81
2023-03-31T23:14:20.379Z,98403.03
2023-03-31T23:16:47.465Z,98404.75
2023-03-31T23:19:14.497Z,98403.03
2023-03-31T23:21:41.396Z,98399.66
2023-03-31T23:24:08.366Z,98396.28
2023-03-31T23:26:35.476Z,98403.34
2023-03-31T23:29:02.500Z,98403.34
2023-03-31T23:31:31.390Z,98405.06
2023-03-31T23:33:59.000Z,98398.16
2023-03-31T23:36:26.444Z,98403.97
2023-03-31T23:38:54.269Z,98395.38
2023-03-31T23:41:22.830Z,98398.63
2023-03-31T23:43:51.005Z,98387.59
2023-03-31T23:46:18.233Z,98391.81
2023-03-31T23:48:45.533Z,98386.66
2023-03-31T23:51:13.383Z,98384.94
2023-03-31T23:53:40.542Z,98384.94
2023-03-31T23:56:11.749Z,98385.00
2023-03-31T23:58:39.203Z,98383.34
